createdAt,value
2022-09-10T00:03:39.689Z,25.90
2022-09-10T00:08:42.948Z,25.90
2022-09-10T00:13:47.552Z,25.90
2022-09-10T00:18:51.239Z,25.90
2022-09-10T00:23:54.877Z,25.90
2022-09-10T00:29:00.278Z,25.80
2022-09-10T00:34:05.780Z,25.80
2022-09-10T00:39:11.249Z,25.70
2022-09-10T00:44:56.965Z,25.70
2022-09-10T00:50:06.861Z,25.60
2022-09-10T00:55:11.155Z,25.60
2022-09-10T01:00:17.051Z,25.70
2022-09-10T01:05:21.025Z,25.80
2022-09-10T01:10:29.020Z,25.80
2022-09-10T01:15:41.065Z,26.00
2022-09-10T01:21:07.099Z,26.10
2022-09-10T01:26:21.779Z,26.10
2022-09-10T01:31:32.516Z,26.20
2022-09-10T01:36:39.874Z,26.20
2022-09-10T01:41:43.739Z,26.30
2022-09-10T01:47:01.109Z,26.30
2022-09-10T01:52:25.538Z,26.20
2022-09-10T01:57:45.069Z,26.30
2022-09-10T02:02:57.935Z,26.30
2022-09-10T02:08:23.722Z,26.30
2022-09-10T02:13:29.763Z,26.30
2022-09-10T02:18:53.459Z,26.40
2022-09-10T02:23:59.049Z,26.40
2022-09-10T02:29:02.952Z,26.40
2022-09-10T02:34:07.627Z,26.40
2022-09-10T02:39:11.254Z,26.30
2022-09-10T02:44:14.600Z,26.20
2022-09-10T02:49:21.003Z,26.10
2022-09-10T02:54:25.157Z,26.10
2022-09-10T02:59:30.993Z,26.00
2022-09-10T03:04:35.593Z,26.00
2022-09-10T03:09:41.200Z,25.90
2022-09-10T03:14:45.130Z,25.90
2022-09-10T03:19:49.725Z,25.90
2022-09-10T03:24:53.361Z,25.90
2022-09-10T03:29:56.970Z,25.90
2022-09-10T03:35:01.741Z,25.90
2022-09-10T03:40:05.891Z,25.80
2022-09-10T03:45:10.090Z,25.80
2022-09-10T03:50:15.589Z,25.80
2022-09-10T03:55:19.221Z,25.80
2022-09-10T04:00:22.681Z,25.90
2022-09-10T04:05:27.724Z,25.90
2022-09-10T04:10:31.067Z,25.90
2022-09-10T04:15:34.957Z,25.90
2022-09-10T04:20:41.221Z,25.80
2022-09-10T04:25:47.660Z,25.80
2022-09-10T04:30:51.528Z,25.80
2022-09-10T04:36:00.568Z,25.80
2022-09-10T04:41:03.837Z,25.70
2022-09-10T04:46:07.727Z,25.70
2022-09-10T04:51:18.106Z,25.70
2022-09-10T04:56:27.691Z,25.60
2022-09-10T05:01:31.415Z,25.50
2022-09-10T05:06:36.405Z,25.50
2022-09-10T05:11:41.533Z,25.50
2022-09-10T05:16:46.397Z,25.50
2022-09-10T05:21:51.270Z,25.50
2022-09-10T05:26:54.559Z,25.40
2022-09-10T05:31:58.792Z,25.50
2022-09-10T05:37:04.242Z,25.50
2022-09-10T05:42:08.160Z,25.50
2022-09-10T05:47:13.514Z,25.50
2022-09-10T05:52:18.777Z,25.60
2022-09-10T05:57:22.200Z,25.60
2022-09-10T06:02:26.439Z,25.70
2022-09-10T06:07:34.097Z,25.60
2022-09-10T06:12:38.300Z,25.70
2022-09-10T06:17:42.286Z,25.80
2022-09-10T06:22:47.543Z,25.80
2022-09-10T06:27:50.918Z,25.80
2022-09-10T06:32:54.415Z,25.90
2022-09-10T06:37:59.722Z,26.00
2022-09-10T06:43:04.294Z,26.10
2022-09-10T06:48:47.581Z,26.20
2022-09-10T06:53:53.724Z,26.40
2022-09-10T06:59:02.156Z,26.60
2022-09-10T07:04:11.851Z,26.70
2022-09-10T07:09:17.225Z,26.70
2022-09-10T07:14:35.523Z,26.70
2022-09-10T07:19:42.450Z,26.70
2022-09-10T07:24:55.679Z,26.60
2022-09-10T07:30:06.039Z,26.60
2022-09-10T07:35:09.787Z,26.50
2022-09-10T07:40:15.566Z,26.40
2022-09-10T07:45:19.657Z,26.30
2022-09-10T07:50:24.139Z,26.20
2022-09-10T07:55:32.542Z,26.10
2022-09-10T08:00:37.494Z,26.10
2022-09-10T08:05:44.057Z,26.00
2022-09-10T08:10:50.135Z,26.00
2022-09-10T08:15:55.495Z,26.00
2022-09-10T08:21:00.145Z,26.00
2022-09-10T08:26:06.557Z,26.20
2022-09-10T08:31:12.514Z,26.30
2022-09-10T08:36:24.879Z,26.40
2022-09-10T08:41:40.398Z,26.40
2022-09-10T08:47:02.906Z,26.50
2022-09-10T08:52:15.966Z,26.60
2022-09-10T08:57:26.456Z,26.70
2022-09-10T09:02:48.873Z,26.80
2022-09-10T09:07:55.126Z,27.00
2022-09-10T09:13:22.097Z,27.10
2022-09-10T09:18:33.057Z,27.20
2022-09-10T09:24:12.307Z,27.30
2022-09-10T09:29:20.650Z,27.50
2022-09-10T09:34:32.766Z,27.80
2022-09-10T09:39:42.618Z,27.90
2022-09-10T09:44:57.184Z,27.90
2022-09-10T09:50:02.163Z,28.00
2022-09-10T09:55:14.822Z,28.00
2022-09-10T10:05:49.300Z,28.00
2022-09-10T10:10:53.985Z,28.20
2022-09-10T10:15:57.213Z,28.40
2022-09-10T10:21:16.627Z,28.80
2022-09-10T10:26:29.156Z,29.20
2022-09-10T10:31:43.432Z,29.60
2022-09-10T10:36:56.351Z,30.00
2022-09-10T10:42:06.229Z,30.30
2022-09-10T10:47:27.118Z,30.50
2022-09-10T10:52:40.717Z,30.50
2022-09-10T10:58:11.193Z,30.60
2022-09-10T11:03:20.403Z,30.70
2022-09-10T11:08:31.483Z,30.90
2022-09-10T11:13:40.675Z,31.10
2022-09-10T11:18:47.591Z,31.30
2022-09-10T11:23:58.260Z,31.40
2022-09-10T11:29:22.394Z,31.40
2022-09-10T11:34:34.622Z,31.40
2022-09-10T11:39:44.825Z,31.40
2022-09-10T11:44:57.081Z,31.40
2022-09-10T11:50:05.166Z,31.50
2022-09-10T11:55:17.450Z,31.70
2022-09-10T12:00:22.427Z,31.90
2022-09-10T12:05:31.366Z,32.00
2022-09-10T12:10:42.390Z,32.00
2022-09-10T12:15:53.240Z,32.00
2022-09-10T12:21:00.151Z,32.00
2022-09-10T12:26:10.344Z,32.00
2022-09-10T12:31:15.525Z,32.10
2022-09-10T12:37:00.207Z,32.10
2022-09-10T12:42:20.132Z,32.10
2022-09-10T12:47:47.567Z,32.10
2022-09-10T12:53:13.316Z,32.00
2022-09-10T12:58:30.773Z,32.00
2022-09-10T13:03:34.378Z,31.90
2022-09-10T13:08:41.747Z,31.70
2022-09-10T13:13:54.671Z,31.70
2022-09-10T13:19:38.385Z,31.60
2022-09-10T13:25:07.278Z,31.50
2022-09-10T13:30:19.199Z,31.50
2022-09-10T13:35:58.632Z,31.30
2022-09-10T13:41:21.252Z,31.30
2022-09-10T13:46:35.241Z,31.10
2022-09-10T13:51:48.755Z,31.00
2022-09-10T13:56:52.529Z,31.00
2022-09-10T14:01:59.384Z,30.90
2022-09-10T14:07:07.783Z,30.80
2022-09-10T14:12:13.893Z,30.70
2022-09-10T14:17:21.970Z,30.60
2022-09-10T14:22:26.686Z,30.50
2022-09-10T14:27:32.246Z,30.40
2022-09-10T14:32:37.500Z,30.30
2022-09-10T14:37:42.861Z,30.10
2022-09-10T14:42:47.186Z,30.00
2022-09-10T14:47:54.542Z,29.80
2022-09-10T14:52:57.912Z,29.70
2022-09-10T14:58:01.682Z,29.60
2022-09-10T15:03:06.329Z,29.40
2022-09-10T15:08:09.886Z,29.30
2022-09-10T15:13:18.872Z,29.20
2022-09-10T15:18:23.400Z,29.10
2022-09-10T15:23:26.940Z,29.00
2022-09-10T15:28:30.467Z,28.90
2022-09-10T15:33:34.993Z,28.90
2022-09-10T15:38:38.413Z,28.80
2022-09-10T15:43:44.050Z,28.80
2022-09-10T15:48:49.955Z,28.70
2022-09-10T15:53:55.300Z,28.60
2022-09-10T15:58:59.221Z,28.50
2022-09-10T16:04:04.763Z,28.50
2022-09-10T16:09:09.705Z,28.40
2022-09-10T16:14:16.076Z,28.40
2022-09-10T16:19:20.976Z,28.30
2022-09-10T16:24:24.480Z,28.30
2022-09-10T16:29:28.612Z,28.20
2022-09-10T16:34:33.227Z,28.20
2022-09-10T16:39:36.524Z,28.20
2022-09-10T16:44:41.281Z,28.20
2022-09-10T16:49:46.138Z,28.20
2022-09-10T16:54:50.071Z,28.20
2022-09-10T16:59:53.417Z,28.10
2022-09-10T17:04:58.968Z,28.10
2022-09-10T17:10:02.266Z,28.10
2022-09-10T17:15:06.240Z,28.10
2022-09-10T17:20:11.807Z,28.10
2022-09-10T17:25:15.258Z,28.10
2022-09-10T17:30:18.771Z,28.20
2022-09-10T17:35:23.501Z,28.20
2022-09-10T17:40:26.886Z,28.30
2022-09-10T17:45:30.147Z,28.20
2022-09-10T17:50:34.861Z,28.30
2022-09-10T17:55:38.154Z,28.20
2022-09-10T18:00:41.938Z,28.20
2022-09-10T18:05:47.288Z,28.00
2022-09-10T18:10:51.008Z,27.80
2022-09-10T18:15:54.451Z,27.60
2022-09-10T18:21:00.785Z,27.40
2022-09-10T18:26:12.813Z,27.20
2022-09-10T18:31:17.064Z,27.10
2022-09-10T18:36:22.971Z,26.90
2022-09-10T18:41:28.217Z,26.70
2022-09-10T18:46:32.913Z,26.60
2022-09-10T18:51:37.761Z,26.40
2022-09-10T18:56:42.128Z,26.30
2022-09-10T19:01:46.161Z,26.20
2022-09-10T19:06:51.611Z,26.00
2022-09-10T19:11:56.855Z,25.90
2022-09-10T19:17:02.195Z,25.80
2022-09-10T19:22:08.054Z,25.70
2022-09-10T19:27:11.515Z,25.50
2022-09-10T19:32:15.772Z,25.40
2022-09-10T19:37:20.949Z,25.30
2022-09-10T19:42:24.902Z,25.20
2022-09-10T19:47:28.533Z,25.20
2022-09-10T19:52:33.645Z,25.20
2022-09-10T19:57:37.680Z,25.20
2022-09-10T20:02:41.250Z,25.20
2022-09-10T20:07:46.799Z,25.30
2022-09-10T20:12:50.416Z,25.20
2022-09-10T20:17:53.921Z,25.20
2022-09-10T20:23:02.081Z,25.20
2022-09-10T20:28:05.981Z,25.30
2022-09-10T20:33:09.344Z,25.30
2022-09-10T20:38:14.051Z,25.30
2022-09-10T20:43:17.304Z,25.40
2022-09-10T20:48:22.737Z,25.60
2022-09-10T20:53:28.165Z,25.90
2022-09-10T20:58:33.589Z,26.30
2022-09-10T21:03:37.101Z,26.70
2022-09-10T21:08:43.369Z,27.00
2022-09-10T21:13:48.592Z,27.30
2022-09-10T21:18:54.740Z,27.50
2022-09-10T21:24:01.630Z,27.70
2022-09-10T21:29:07.335Z,27.80
2022-09-10T21:34:10.696Z,27.90
2022-09-10T21:39:16.607Z,28.10
2022-09-10T21:44:22.193Z,28.20
2022-09-10T21:49:25.896Z,28.30
2022-09-10T21:54:30.476Z,28.40
2022-09-10T21:59:33.786Z,28.40
2022-09-10T22:04:36.963Z,28.50
2022-09-10T22:09:41.507Z,28.60
2022-09-10T22:14:45.063Z,28.60
2022-09-10T22:19:48.395Z,28.60
2022-09-10T22:24:53.571Z,28.60
2022-09-10T22:29:57.048Z,28.70
2022-09-10T22:35:00.266Z,28.60
2022-09-10T22:40:05.928Z,28.60
2022-09-10T22:45:10.194Z,28.50
2022-09-10T22:50:13.528Z,28.50
2022-09-10T22:55:18.187Z,28.50
2022-09-10T23:00:22.266Z,28.40
2022-09-10T23:05:25.740Z,28.30
2022-09-10T23:10:30.307Z,28.20
2022-09-10T23:15:33.689Z,28.10
2022-09-10T23:20:37.533Z,28.10
2022-09-10T23:25:43.453Z,28.10
2022-09-10T23:30:47.239Z,28.10
2022-09-10T23:35:51.196Z,28.10
2022-09-10T23:40:56.507Z,28.00
2022-09-10T23:46:00.219Z,28.00
2022-09-10T23:51:04.389Z,28.00
2022-09-10T23:56:09.272Z,28.00
